Time;durP1;ratioP1;P1;durP2;ratioP2;P2;SDS_P1;SDS_P2;PMS_P1;PMS_P2;Temp;Humidity;BMP_temperature;BMP_pressure;BME280_temperature;BME280_humidity;BME280_pressure;Samples;Min_cycle;Max_cycle;Signal;HPM_P1;HPM_P2
2022/06/28 00:01:51;;;;;;;9.10;5.22;;;13.60;88.30;;;;;;4961055;28;20046;-80
2022/06/28 00:04:17;;;;;;;7.80;5.00;;;13.60;88.40;;;;;;4976782;28;20069;-80
2022/06/28 00:06:43;;;;;;;9.05;5.45;;;13.70;88.20;;;;;;4960624;28;20038;-81
2022/06/28 00:09:11;;;;;;;8.77;6.13;;;13.60;88.40;;;;;;4944993;28;20049;-80
2022/06/28 00:11:36;;;;;;;9.05;5.70;;;13.60;88.50;;;;;;4960538;28;20129;-81
2022/06/28 00:16:04;;;;;;;7.25;6.30;;;13.60;88.50;;;;;;4962424;28;20077;-82
2022/06/28 00:16:50;;;;;;;8.60;6.07;;;13.60;88.30;;;;;;4980360;28;20054;-82
2022/06/28 00:19:16;;;;;;;9.73;5.88;;;13.50;88.40;;;;;;4964242;28;20049;-78
2022/06/28 00:21:41;;;;;;;11.98;6.53;;;13.50;88.40;;;;;;4964342;28;20121;-79
2022/06/28 00:24:07;;;;;;;10.05;5.68;;;13.50;88.40;;;;;;4964104;28;20092;-81
2022/06/28 00:26:33;;;;;;;7.90;4.18;;;13.50;88.40;;;;;;4963914;28;20042;-77
2022/06/28 00:28:58;;;;;;;9.95;6.20;;;13.40;88.40;;;;;;4963971;28;20042;-81
2022/06/28 00:31:25;;;;;;;8.50;5.45;;;13.50;88.40;;;;;;4980086;28;20453;-80
2022/06/28 00:33:51;;;;;;;8.90;5.70;;;13.40;88.40;;;;;;4964287;28;20383;-80
2022/06/28 00:36:17;;;;;;;11.38;5.93;;;13.40;88.40;;;;;;4948517;28;20042;-78
2022/06/28 00:38:42;;;;;;;10.05;5.35;;;13.30;88.40;;;;;;4963967;28;20422;-79
2022/06/28 00:41:09;;;;;;;7.97;5.82;;;13.40;88.60;;;;;;4963934;28;20432;-81
2022/06/28 00:43:36;;;;;;;10.77;4.93;;;13.30;88.70;;;;;;4979780;28;20561;-80
2022/06/28 00:46:02;;;;;;;9.80;5.65;;;13.30;88.60;;;;;;4979843;28;20134;-80
2022/06/28 00:48:28;;;;;;;8.52;5.50;;;13.40;88.70;;;;;;4979877;28;20054;-81
2022/06/28 00:50:54;;;;;;;9.02;5.60;;;13.30;88.50;;;;;;4979689;28;20096;-79
2022/06/28 00:53:21;;;;;;;11.20;5.18;;;13.30;88.50;;;;;;4963593;28;20064;-78
2022/06/28 00:55:48;;;;;;;10.45;5.35;;;13.30;88.60;;;;;;4979548;28;20042;-81
2022/06/28 00:58:15;;;;;;;9.45;5.53;;;13.30;88.60;;;;;;4979553;28;20088;-81
2022/06/28 01:00:43;;;;;;;8.73;5.43;;;13.30;88.50;;;;;;4979721;28;20562;-79
2022/06/28 01:03:12;;;;;;;7.78;4.97;;;13.30;88.60;;;;;;4979720;28;20524;-79
2022/06/28 01:05:38;;;;;;;9.30;5.40;;;13.30;88.70;;;;;;4963056;28;20038;-79
2022/06/28 01:08:05;;;;;;;11.27;6.20;;;13.30;88.80;;;;;;4947158;28;20042;-81
2022/06/28 01:10:31;;;;;;;8.75;4.22;;;13.30;88.90;;;;;;4978911;28;20058;-80
2022/06/28 01:12:57;;;;;;;11.73;4.82;;;13.40;89.20;;;;;;4947133;28;20047;-81
2022/06/28 01:15:23;;;;;;;12.43;5.55;;;13.40;90.40;;;;;;4963239;28;20434;-80
2022/06/28 01:17:49;;;;;;;13.98;5.50;;;13.50;91.20;;;;;;4963413;28;20438;-79
2022/06/28 01:20:15;;;;;;;17.42;5.30;;;13.50;91.00;;;;;;4979306;28;20460;-81
2022/06/28 01:22:42;;;;;;;10.88;5.68;;;13.50;90.50;;;;;;4979554;28;20130;-79
2022/06/28 01:25:09;;;;;;;14.90;5.43;;;13.50;90.30;;;;;;4978094;28;20558;-81
2022/06/28 01:27:36;;;;;;;10.00;5.53;;;13.50;89.90;;;;;;4978966;28;20034;-81
2022/06/28 01:30:06;;;;;;;15.38;5.60;;;13.40;89.80;;;;;;4978768;28;20077;-82
2022/06/28 01:32:32;;;;;;;11.23;4.70;;;13.30;89.60;;;;;;4978467;28;20506;-81
2022/06/28 01:34:59;;;;;;;12.27;5.45;;;13.30;89.60;;;;;;4962596;28;20096;-81
2022/06/28 01:37:26;;;;;;;9.27;4.82;;;13.30;89.70;;;;;;4978515;28;20038;-81
2022/06/28 01:39:52;;;;;;;7.70;4.82;;;13.30;89.70;;;;;;4978560;28;20073;-81
2022/06/28 01:42:18;;;;;;;12.32;5.07;;;13.20;89.60;;;;;;4962543;28;20080;-80
2022/06/28 01:44:45;;;;;;;14.27;6.13;;;13.20;89.70;;;;;;4946793;28;20185;-79
2022/06/28 01:47:12;;;;;;;12.13;6.93;;;13.20;89.50;;;;;;4962858;28;20379;-81
2022/06/28 01:49:39;;;;;;;11.50;7.32;;;13.10;89.60;;;;;;4962747;28;20152;-82
2022/06/28 01:52:05;;;;;;;11.07;7.97;;;13.20;89.90;;;;;;4978760;28;20046;-79
2022/06/28 01:54:31;;;;;;;15.60;7.78;;;13.20;89.90;;;;;;4962488;28;20110;-77
2022/06/28 01:56:57;;;;;;;9.73;7.57;;;13.10;89.70;;;;;;4946388;28;20140;-80
2022/06/28 01:59:23;;;;;;;17.60;8.80;;;13.10;89.70;;;;;;4978564;28;20049;-80
2022/06/28 02:01:49;;;;;;;9.27;7.95;;;13.10;90.00;;;;;;4978559;28;20040;-81
2022/06/28 02:04:26;;;;;;;11.60;7.70;;;13.20;90.00;;;;;;4962536;28;20077;-81
2022/06/28 02:06:52;;;;;;;10.73;7.38;;;13.30;90.00;;;;;;4978386;28;20042;-81
2022/06/28 02:09:18;;;;;;;12.93;7.45;;;13.20;90.50;;;;;;4962346;28;20047;-78
2022/06/28 02:11:44;;;;;;;12.20;7.68;;;13.20;90.20;;;;;;4946088;28;20062;-79
2022/06/28 02:14:09;;;;;;;15.60;7.43;;;13.30;91.00;;;;;;4962333;28;20073;-80
2022/06/28 02:16:37;;;;;;;12.00;6.35;;;13.30;91.20;;;;;;4962074;28;20479;-81
2022/06/28 02:19:03;;;;;;;13.70;6.75;;;13.20;91.10;;;;;;4978080;28;20042;-80
2022/06/28 02:21:38;;;;;;;17.38;6.75;;;13.20;90.50;;;;;;4978108;28;20065;-79
2022/06/28 02:24:05;;;;;;;12.60;5.47;;;13.30;90.50;;;;;;4978317;28;20046;-80
2022/06/28 02:26:32;;;;;;;11.65;5.20;;;13.20;91.30;;;;;;4962144;28;20046;-80
2022/06/28 02:28:59;;;;;;;12.55;4.95;;;13.20;91.50;;;;;;4962354;28;20038;-81
2022/06/28 02:31:25;;;;;;;11.98;5.40;;;13.20;91.40;;;;;;4946402;28;20050;-79
2022/06/28 02:33:50;;;;;;;17.40;5.30;;;13.30;91.70;;;;;;4945956;28;20460;-81
2022/06/28 02:41:55;;;;;;;14.65;3.90;;;13.20;91.30;;;;;;4926544;28;20048;-79
2022/06/28 02:44:21;;;;;;;9.70;4.90;;;13.30;91.30;;;;;;4945866;28;20462;-82
2022/06/28 02:46:48;;;;;;;12.80;4.00;;;13.30;91.40;;;;;;4977418;28;20505;-81
2022/06/28 02:49:14;;;;;;;9.35;3.90;;;13.30;91.10;;;;;;4961574;28;20126;-78
2022/06/28 02:51:41;;;;;;;9.25;3.78;;;13.30;91.10;;;;;;4945666;28;20074;-79
2022/06/28 02:54:08;;;;;;;8.68;3.08;;;13.20;91.00;;;;;;4961480;28;20046;-80
2022/06/28 02:56:34;;;;;;;13.07;3.33;;;13.20;91.00;;;;;;4977501;28;20047;-79
2022/06/28 02:59:00;;;;;;;10.55;3.60;;;13.20;91.00;;;;;;4961406;28;20042;-80
2022/06/28 03:01:26;;;;;;;13.27;3.80;;;13.20;90.90;;;;;;4977503;28;20369;-82
2022/06/28 03:03:52;;;;;;;4.57;2.78;;;13.20;90.90;;;;;;4976980;28;20486;-82
2022/06/28 03:06:17;;;;;;;8.32;3.17;;;13.20;90.80;;;;;;4961416;28;20066;-79
2022/06/28 03:08:43;;;;;;;8.93;3.45;;;13.10;90.80;;;;;;4976877;28;20505;-80
2022/06/28 03:11:09;;;;;;;7.18;3.65;;;13.10;90.70;;;;;;4960571;28;20085;-80
2022/06/28 03:13:34;;;;;;;8.25;2.78;;;13.10;91.00;;;;;;4976530;28;20052;-82
2022/06/28 03:16:00;;;;;;;6.88;3.10;;;13.10;90.90;;;;;;4960656;28;20042;-80
2022/06/28 03:18:25;;;;;;;7.38;3.00;;;13.10;91.00;;;;;;4977421;28;20122;-82
2022/06/28 03:20:51;;;;;;;7.30;2.72;;;13.10;91.00;;;;;;4977061;28;20034;-81
2022/06/28 03:23:17;;;;;;;6.43;2.60;;;13.00;90.80;;;;;;4961057;28;20403;-81
2022/06/28 03:25:42;;;;;;;11.88;2.58;;;13.00;90.80;;;;;;4961244;28;20045;-79
2022/06/28 03:28:08;;;;;;;7.35;2.70;;;13.00;90.80;;;;;;4960771;28;20476;-81
2022/06/28 03:30:34;;;;;;;8.80;2.65;;;13.00;90.70;;;;;;4960962;28;20042;-81
2022/06/28 03:33:00;;;;;;;6.80;2.47;;;13.00;90.60;;;;;;4960746;28;20046;-82
2022/06/28 03:35:25;;;;;;;6.00;2.33;;;13.00;90.70;;;;;;4961060;28;20133;-82
2022/06/28 03:37:51;;;;;;;8.10;2.88;;;12.90;90.70;;;;;;4960850;28;20124;-80
2022/06/28 03:40:17;;;;;;;5.10;2.10;;;12.90;90.60;;;;;;4944871;28;20049;-81
2022/06/28 03:42:42;;;;;;;8.43;3.03;;;12.90;90.60;;;;;;4944975;28;20081;-80
2022/06/28 03:45:09;;;;;;;6.65;2.85;;;12.90;90.60;;;;;;4944811;28;20502;-81
2022/06/28 03:47:35;;;;;;;7.18;2.72;;;12.90;90.60;;;;;;4976207;28;20096;-81
2022/06/28 03:50:00;;;;;;;3.90;2.30;;;12.90;90.60;;;;;;4976358;28;20046;-81
2022/06/28 03:52:29;;;;;;;4.55;2.10;;;12.90;90.60;;;;;;4960705;28;20042;-81
2022/06/28 03:54:58;;;;;;;5.30;2.00;;;12.80;90.50;;;;;;4961009;28;20123;-78
2022/06/28 03:57:25;;;;;;;6.68;2.17;;;12.80;90.60;;;;;;4960772;28;20097;-79
2022/06/28 03:59:51;;;;;;;6.40;2.78;;;12.80;90.60;;;;;;4960521;28;20125;-79
2022/06/28 04:02:17;;;;;;;7.32;2.30;;;12.70;90.60;;;;;;4960583;28;20124;-80
2022/06/28 04:04:42;;;;;;;7.35;2.10;;;12.70;90.50;;;;;;4960500;28;20193;-81
2022/06/28 04:07:08;;;;;;;4.90;2.13;;;12.70;90.50;;;;;;4976389;28;20053;-80
2022/06/28 04:09:34;;;;;;;10.27;2.53;;;12.70;90.60;;;;;;4960676;28;20045;-80
2022/06/28 04:11:59;;;;;;;6.60;2.33;;;12.70;90.60;;;;;;4960136;28;20061;-81
2022/06/28 04:14:25;;;;;;;6.88;2.78;;;12.70;90.60;;;;;;4976997;28;20100;-82
2022/06/28 04:16:51;;;;;;;4.15;2.20;;;12.70;90.70;;;;;;4976649;28;20044;-79
2022/06/28 04:19:16;;;;;;;3.83;2.20;;;12.70;90.60;;;;;;4960575;28;20034;-81
2022/06/28 04:21:42;;;;;;;6.30;2.22;;;12.80;90.80;;;;;;4960367;28;20479;-80
2022/06/28 04:24:08;;;;;;;4.88;2.20;;;12.80;90.90;;;;;;4960299;28;20053;-81
2022/06/28 04:26:34;;;;;;;8.82;2.83;;;12.90;90.90;;;;;;4960501;28;20049;-81
2022/06/28 04:29:00;;;;;;;5.78;3.10;;;13.00;91.10;;;;;;4960416;28;20042;-80
2022/06/28 04:31:26;;;;;;;8.93;3.97;;;13.00;91.60;;;;;;4976512;28;20048;-82
2022/06/28 04:33:51;;;;;;;8.38;3.17;;;13.20;92.30;;;;;;4960464;28;20041;-82
2022/06/28 04:36:17;;;;;;;10.73;3.40;;;13.20;92.10;;;;;;4944328;28;20046;-82
2022/06/28 04:38:43;;;;;;;7.78;4.13;;;13.30;91.80;;;;;;4960305;28;20104;-81
2022/06/28 04:41:08;;;;;;;10.90;3.47;;;13.30;91.70;;;;;;4960571;28;20483;-82
2022/06/28 04:43:34;;;;;;;11.93;3.70;;;13.40;92.30;;;;;;4944271;28;20039;-79
2022/06/28 04:46:00;;;;;;;8.13;3.72;;;13.50;92.40;;;;;;4976987;28;20038;-82
2022/06/28 04:48:26;;;;;;;10.02;3.58;;;13.60;92.10;;;;;;4976202;28;20573;-80
2022/06/28 04:50:51;;;;;;;10.20;3.95;;;13.60;92.10;;;;;;4960242;28;20042;-82
2022/06/28 04:53:17;;;;;;;7.30;3.80;;;13.70;92.20;;;;;;4960014;28;20532;-81
2022/06/28 04:55:43;;;;;;;9.25;4.03;;;13.70;92.10;;;;;;4976092;28;20101;-82
2022/06/28 04:58:08;;;;;;;7.07;3.45;;;13.80;92.90;;;;;;4975783;28;20042;-82
2022/06/28 05:00:34;;;;;;;9.95;4.57;;;14.00;92.60;;;;;;4960948;28;20044;-82
2022/06/28 05:03:00;;;;;;;11.82;4.68;;;14.00;92.50;;;;;;4979513;28;20038;-80
2022/06/28 05:05:26;;;;;;;8.88;3.97;;;14.10;93.60;;;;;;4963099;28;20174;-79
2022/06/28 05:07:51;;;;;;;9.65;4.68;;;14.20;93.40;;;;;;4947112;28;20085;-80
2022/06/28 05:10:17;;;;;;;7.68;3.58;;;14.20;93.20;;;;;;4962916;28;20057;-79
2022/06/28 05:12:43;;;;;;;8.82;3.50;;;14.30;93.30;;;;;;4963591;28;20042;-78
2022/06/28 05:15:09;;;;;;;12.00;4.03;;;14.40;93.20;;;;;;4979609;28;20038;-79
2022/06/28 05:17:35;;;;;;;7.82;3.17;;;14.50;93.90;;;;;;4963475;28;20125;-78
2022/06/28 05:20:02;;;;;;;9.73;3.63;;;14.60;93.10;;;;;;4963555;28;20128;-79
2022/06/28 05:22:28;;;;;;;9.55;3.38;;;14.60;92.60;;;;;;4979397;28;20054;-79
2022/06/28 05:24:54;;;;;;;9.20;3.10;;;14.80;92.40;;;;;;4996737;28;20045;-78
2022/06/28 05:27:20;;;;;;;11.60;3.47;;;14.80;92.20;;;;;;4978911;28;20132;-78
2022/06/28 05:29:46;;;;;;;7.78;3.05;;;14.90;92.50;;;;;;4979357;28;20097;-78
2022/06/28 05:32:12;;;;;;;8.35;3.10;;;15.00;92.10;;;;;;4979073;28;20435;-78
2022/06/28 05:34:38;;;;;;;8.88;3.35;;;15.10;92.20;;;;;;4979036;28;20046;-80
2022/06/28 05:37:05;;;;;;;10.70;3.10;;;15.20;92.00;;;;;;4978927;28;20517;-80
2022/06/28 05:39:31;;;;;;;7.32;3.22;;;15.20;92.10;;;;;;4979059;28;20042;-77
2022/06/28 05:41:57;;;;;;;7.57;3.03;;;15.40;91.90;;;;;;4962953;28;20039;-78
2022/06/28 05:44:23;;;;;;;6.00;2.40;;;15.50;91.90;;;;;;4963033;28;20038;-81
2022/06/28 05:46:49;;;;;;;12.18;3.17;;;15.50;91.50;;;;;;4946770;28;20081;-80
2022/06/28 05:49:15;;;;;;;7.60;2.60;;;15.60;91.60;;;;;;4978690;28;20049;-81
2022/06/28 05:51:41;;;;;;;7.93;3.25;;;15.70;91.50;;;;;;4978985;28;20046;-81
2022/06/28 05:54:06;;;;;;;12.25;3.45;;;15.80;91.10;;;;;;4961757;28;20398;-82
2022/06/28 05:56:35;;;;;;;8.77;2.60;;;15.90;91.20;;;;;;4946275;28;20047;-80
2022/06/28 05:59:01;;;;;;;8.27;2.42;;;16.00;91.10;;;;;;4962653;28;20381;-79
2022/06/28 06:01:26;;;;;;;9.30;3.28;;;16.00;90.80;;;;;;4977793;28;20125;-82
2022/06/28 06:03:52;;;;;;;11.25;2.80;;;16.10;90.40;;;;;;4962056;28;20112;-79
2022/06/28 06:06:18;;;;;;;9.95;2.92;;;16.20;90.30;;;;;;4961708;28;20399;-80
2022/06/28 06:08:44;;;;;;;10.10;2.80;;;16.30;90.40;;;;;;4961738;28;20046;-82
2022/06/28 06:11:09;;;;;;;15.05;3.67;;;16.40;90.00;;;;;;4961173;28;20054;-80
2022/06/28 06:13:35;;;;;;;7.97;2.65;;;16.40;89.50;;;;;;4961615;28;20045;-83
2022/06/28 06:16:02;;;;;;;7.63;2.78;;;16.50;89.30;;;;;;4961617;28;20049;-79
2022/06/28 06:18:27;;;;;;;6.95;2.50;;;16.50;88.50;;;;;;4946142;28;20193;-81
2022/06/28 06:20:53;;;;;;;10.65;2.47;;;16.60;87.80;;;;;;4977740;28;20117;-80
2022/06/28 06:23:19;;;;;;;11.95;2.92;;;16.60;87.70;;;;;;4977473;28;20128;-81
2022/06/28 06:25:44;;;;;;;10.80;2.83;;;16.70;86.60;;;;;;4945527;28;20418;-80
2022/06/28 06:28:10;;;;;;;6.80;2.10;;;16.70;87.10;;;;;;4945705;28;20038;-81
2022/06/28 06:30:36;;;;;;;14.05;2.65;;;16.80;86.00;;;;;;4961562;28;20049;-80
2022/06/28 06:33:02;;;;;;;11.02;2.30;;;16.90;86.30;;;;;;4961160;28;20043;-82
2022/06/28 06:35:28;;;;;;;7.93;2.00;;;16.90;85.50;;;;;;4961424;28;20096;-81
2022/06/28 06:38:00;;;;;;;10.30;2.28;;;17.00;83.70;;;;;;4962008;28;20039;-80
2022/06/28 06:40:27;;;;;;;15.43;2.88;;;17.00;83.20;;;;;;4946351;28;20092;-82
2022/06/28 06:42:52;;;;;;;8.10;2.30;;;17.00;83.20;;;;;;4961362;28;20463;-81
2022/06/28 06:45:18;;;;;;;7.45;2.95;;;17.10;83.10;;;;;;4977488;28;20133;-83
2022/06/28 06:47:44;;;;;;;7.47;2.67;;;17.20;82.70;;;;;;4945608;28;20046;-83
2022/06/28 06:50:10;;;;;;;9.27;2.30;;;17.20;81.50;;;;;;4961627;28;20458;-82
2022/06/28 06:52:36;;;;;;;8.98;2.28;;;17.20;81.70;;;;;;4960706;28;20479;-82
2022/06/28 06:55:03;;;;;;;10.30;2.10;;;17.20;80.70;;;;;;4960842;28;20523;-82
2022/06/28 06:57:29;;;;;;;13.05;2.38;;;17.30;80.90;;;;;;4960884;28;20042;-81
2022/06/28 06:59:55;;;;;;;12.48;2.60;;;17.40;80.30;;;;;;4977167;28;20049;-81
2022/06/28 07:02:21;;;;;;;7.05;1.92;;;17.50;80.20;;;;;;4976767;28;20087;-82
2022/06/28 07:04:46;;;;;;;9.75;2.40;;;17.50;79.60;;;;;;4960417;28;20034;-81
2022/06/28 07:07:12;;;;;;;8.73;2.67;;;17.60;79.20;;;;;;4977159;28;20076;-81
2022/06/28 07:09:38;;;;;;;10.73;2.28;;;17.70;79.20;;;;;;4976942;28;20046;-80
2022/06/28 07:12:05;;;;;;;10.32;3.30;;;17.90;79.80;;;;;;4953742;28;20059;-80
2022/06/28 07:14:30;;;;;;;9.05;1.95;;;18.00;79.60;;;;;;4953988;29;20051;-80
2022/06/28 07:16:56;;;;;;;7.40;2.22;;;18.00;78.00;;;;;;4938378;29;20495;-81
2022/06/28 07:19:22;;;;;;;9.30;2.30;;;17.90;78.00;;;;;;4954270;29;20129;-82
2022/06/28 07:21:48;;;;;;;6.55;2.30;;;17.70;77.60;;;;;;4938209;28;20053;-83
2022/06/28 07:24:14;;;;;;;8.38;1.70;;;17.60;77.70;;;;;;4953743;28;20043;-81
2022/06/28 07:26:40;;;;;;;9.50;2.47;;;17.50;77.70;;;;;;4953080;29;20043;-83
2022/06/28 07:29:06;;;;;;;6.35;2.15;;;17.50;77.20;;;;;;4953784;29;20054;-83
2022/06/28 07:31:32;;;;;;;9.60;2.75;;;17.60;77.10;;;;;;4954372;28;20047;-81
2022/06/28 07:33:58;;;;;;;12.05;3.13;;;17.70;77.20;;;;;;4953790;29;20118;-81
2022/06/28 07:36:24;;;;;;;11.43;2.78;;;17.90;77.80;;;;;;4937864;29;20047;-81
2022/06/28 07:38:50;;;;;;;10.60;1.98;;;17.90;77.80;;;;;;4953917;29;20050;-83
2022/06/28 07:41:15;;;;;;;9.02;2.40;;;18.00;78.40;;;;;;4922106;29;20072;-82
2022/06/28 07:43:41;;;;;;;9.73;1.92;;;18.00;75.80;;;;;;4937774;29;20078;-83
2022/06/28 07:46:07;;;;;;;10.18;2.25;;;18.10;73.70;;;;;;4938076;29;20047;-82
2022/06/28 07:48:33;;;;;;;8.05;2.00;;;18.20;72.00;;;;;;4937901;29;20431;-82
2022/06/28 07:53:43;;;;;;;11.77;2.47;;;18.40;71.30;;;;;;4953493;28;20054;-82
2022/06/28 07:56:09;;;;;;;8.65;1.88;;;18.50;71.80;;;;;;4922207;29;20035;-81
2022/06/28 07:58:36;;;;;;;8.25;1.80;;;18.50;70.80;;;;;;4953742;29;20499;-78
2022/06/28 08:01:02;;;;;;;7.53;1.73;;;18.60;70.80;;;;;;4953572;29;20043;-82
2022/06/28 08:03:27;;;;;;;5.13;1.55;;;18.60;69.20;;;;;;4953645;28;20105;-80
2022/06/28 08:05:53;;;;;;;7.35;1.88;;;18.80;68.90;;;;;;4937684;29;20506;-81
2022/06/28 08:08:19;;;;;;;6.97;1.80;;;18.90;68.40;;;;;;4940004;29;20050;-81
2022/06/28 08:10:45;;;;;;;8.30;1.60;;;18.90;68.20;;;;;;4941598;28;20077;-84
2022/06/28 08:13:12;;;;;;;4.93;1.50;;;18.80;66.60;;;;;;4959893;28;20046;-83
2022/06/28 08:15:39;;;;;;;4.38;1.27;;;18.90;67.10;;;;;;4960095;28;20051;-82
2022/06/28 08:18:05;;;;;;;5.93;2.40;;;18.90;67.70;;;;;;4976140;28;20050;-81
2022/06/28 08:20:31;;;;;;;6.30;1.45;;;19.00;66.90;;;;;;4959849;28;20086;-82
2022/06/28 08:22:57;;;;;;;5.85;1.70;;;18.90;62.60;;;;;;4943939;28;20149;-82
2022/06/28 08:25:23;;;;;;;3.65;1.50;;;18.90;61.40;;;;;;4959871;28;20588;-83
2022/06/28 08:27:49;;;;;;;10.13;2.17;;;19.00;62.50;;;;;;4959901;28;20353;-82
2022/06/28 08:30:14;;;;;;;5.72;1.92;;;19.10;61.70;;;;;;4960012;28;20384;-82
2022/06/28 08:32:41;;;;;;;3.75;1.80;;;19.20;62.70;;;;;;4975907;28;20188;-83
2022/06/28 08:35:07;;;;;;;5.30;2.00;;;19.40;62.60;;;;;;4961956;28;20048;-83
2022/06/28 08:37:33;;;;;;;6.70;1.67;;;19.60;63.20;;;;;;4963479;28;20490;-82
2022/06/28 08:39:58;;;;;;;4.55;2.00;;;19.60;63.50;;;;;;4963365;28;20038;-82
2022/06/28 08:42:26;;;;;;;8.48;1.52;;;19.50;63.80;;;;;;4947788;28;20100;-82
2022/06/28 08:44:53;;;;;;;9.45;1.67;;;19.50;64.20;;;;;;4979850;28;20046;-80
2022/06/28 08:47:21;;;;;;;7.00;1.83;;;19.40;61.70;;;;;;4980178;28;20050;-81
2022/06/28 08:49:59;;;;;;;6.75;1.58;;;19.50;64.00;;;;;;4964486;28;20088;-81
2022/06/28 08:52:25;;;;;;;7.15;1.75;;;19.70;64.00;;;;;;4964390;28;20035;-81
2022/06/28 08:54:51;;;;;;;10.63;1.85;;;19.80;62.80;;;;;;4979971;28;20045;-82
2022/06/28 08:57:21;;;;;;;3.65;1.60;;;19.80;61.40;;;;;;4947687;28;20045;-82
2022/06/28 08:59:48;;;;;;;7.28;1.83;;;19.80;61.30;;;;;;4979566;28;20101;-84
2022/06/28 09:02:16;;;;;;;5.57;1.67;;;19.80;58.00;;;;;;4962911;28;20077;-83
2022/06/28 09:04:47;;;;;;;4.38;1.27;;;20.00;58.30;;;;;;4947261;28;20030;-82
2022/06/28 09:07:12;;;;;;;5.85;1.90;;;20.10;57.70;;;;;;4979247;28;20035;-83
2022/06/28 09:09:38;;;;;;;7.70;1.70;;;20.20;58.70;;;;;;4946762;28;20506;-82
2022/06/28 09:12:05;;;;;;;6.13;1.65;;;20.20;60.20;;;;;;4959236;28;20047;-82
2022/06/28 09:14:34;;;;;;;6.55;2.03;;;20.40;60.70;;;;;;4991792;28;20049;-80
2022/06/28 09:17:24;;;;;;;8.02;2.00;;;20.40;58.80;;;;;;4991925;28;20038;-84
2022/06/28 09:19:57;;;;;;;6.88;2.08;;;20.40;59.50;;;;;;4959551;28;20070;-80
2022/06/28 09:22:29;;;;;;;11.05;3.03;;;20.20;61.10;;;;;;4961196;28;20039;-83
2022/06/28 09:24:55;;;;;;;6.13;2.13;;;20.30;61.70;;;;;;4975841;28;20043;-81
2022/06/28 09:27:33;;;;;;;8.18;1.70;;;20.30;61.50;;;;;;4975360;28;20039;-81
2022/06/28 09:30:00;;;;;;;6.70;2.28;;;20.30;62.00;;;;;;4975317;28;20047;-80
2022/06/28 09:32:34;;;;;;;7.25;1.90;;;20.20;61.30;;;;;;4943290;28;20132;-82
2022/06/28 09:35:04;;;;;;;7.45;2.10;;;20.40;58.80;;;;;;4943487;28;20042;-82
2022/06/28 09:37:35;;;;;;;8.13;1.75;;;20.50;59.90;;;;;;4959045;28;20045;-82
2022/06/28 09:40:32;;;;;;;5.80;1.77;;;20.70;59.40;;;;;;4975055;28;20487;-82
2022/06/28 09:43:08;;;;;;;5.68;2.40;;;20.80;56.90;;;;;;4974319;28;20047;-83
2022/06/28 09:45:35;;;;;;;9.57;1.60;;;20.90;57.00;;;;;;4974757;28;20132;-80
2022/06/28 09:48:02;;;;;;;7.40;1.58;;;21.10;57.20;;;;;;4942690;28;20043;-80
2022/06/28 09:50:30;;;;;;;6.18;2.55;;;21.10;57.30;;;;;;4973489;28;20065;-80
2022/06/28 09:52:57;;;;;;;8.38;1.85;;;21.10;55.30;;;;;;4958816;28;20039;-79
2022/06/28 09:55:26;;;;;;;10.32;2.13;;;21.10;56.00;;;;;;4958710;28;20122;-80
2022/06/28 09:57:53;;;;;;;6.28;1.70;;;21.10;55.80;;;;;;4958666;28;20034;-77
2022/06/28 10:00:24;;;;;;;4.65;1.70;;;21.00;55.00;;;;;;4958560;28;20073;-80
2022/06/28 10:02:54;;;;;;;7.43;2.28;;;21.00;54.30;;;;;;4958507;28;20085;-82
2022/06/28 10:05:20;;;;;;;4.63;1.50;;;21.00;55.60;;;;;;4942941;28;20058;-79
2022/06/28 10:07:46;;;;;;;6.47;1.70;;;21.10;55.60;;;;;;4958781;28;20076;-76
2022/06/28 10:10:13;;;;;;;4.95;2.00;;;21.30;54.80;;;;;;4974905;28;20065;-82
2022/06/28 10:15:31;;;;;;;8.43;2.00;;;21.50;55.50;;;;;;4974637;28;20077;-84
2022/06/28 10:18:02;;;;;;;9.40;1.77;;;21.60;55.80;;;;;;4974734;28;20125;-80
2022/06/28 10:20:33;;;;;;;4.97;1.65;;;21.70;56.00;;;;;;4974557;28;20506;-82
2022/06/28 10:23:23;;;;;;;5.68;1.55;;;21.60;54.40;;;;;;4974139;28;20078;-83
2022/06/28 10:26:15;;;;;;;8.15;1.75;;;21.60;53.40;;;;;;4975235;28;20038;-80
2022/06/28 10:28:56;;;;;;;6.35;2.22;;;21.50;52.40;;;;;;4956618;28;20043;-80
2022/06/28 10:31:22;;;;;;;7.80;2.40;;;21.80;54.10;;;;;;4956907;28;20046;-82
2022/06/28 10:33:51;;;;;;;7.60;2.10;;;22.00;54.50;;;;;;4958137;28;20538;-81
2022/06/28 10:36:18;;;;;;;8.07;1.77;;;22.10;52.80;;;;;;4942490;28;20045;-82
2022/06/28 10:39:09;;;;;;;7.13;1.95;;;22.00;53.00;;;;;;4958458;28;20038;-81
2022/06/28 10:41:41;;;;;;;7.82;2.13;;;22.00;54.00;;;;;;4974335;28;20054;-83
2022/06/28 10:44:13;;;;;;;7.78;2.20;;;22.30;54.90;;;;;;4958121;28;20388;-80
2022/06/28 10:46:49;;;;;;;8.27;2.35;;;22.50;55.10;;;;;;4958217;28;20402;-81
2022/06/28 10:49:15;;;;;;;9.23;2.60;;;22.40;53.80;;;;;;4957981;28;20049;-80
2022/06/28 10:52:10;;;;;;;7.15;2.30;;;22.60;54.40;;;;;;4957910;28;20395;-82
2022/06/28 10:54:37;;;;;;;5.70;2.15;;;22.90;53.50;;;;;;4973695;28;20078;-80
2022/06/28 10:57:18;;;;;;;8.70;2.50;;;22.50;52.50;;;;;;4957609;28;20043;-80
2022/06/28 10:59:47;;;;;;;6.00;2.97;;;22.50;53.70;;;;;;4958042;28;20514;-82
2022/06/28 11:02:13;;;;;;;6.68;2.60;;;22.70;54.40;;;;;;4957393;28;20049;-80
2022/06/28 11:04:39;;;;;;;10.38;2.63;;;22.50;54.60;;;;;;4957670;28;20046;-84
2022/06/28 11:07:20;;;;;;;7.13;2.13;;;22.40;54.60;;;;;;4973546;28;20492;-82
2022/06/28 11:10:03;;;;;;;6.32;2.22;;;22.40;53.50;;;;;;4957903;28;20423;-80
2022/06/28 11:12:31;;;;;;;8.63;2.00;;;22.30;53.10;;;;;;4973100;28;20098;-80
2022/06/28 11:15:01;;;;;;;6.13;2.25;;;22.40;53.70;;;;;;4973721;28;20439;-82
2022/06/28 11:17:33;;;;;;;6.72;1.83;;;22.30;53.70;;;;;;4973391;28;20049;-78
2022/06/28 11:20:04;;;;;;;9.48;2.30;;;22.00;51.60;;;;;;4957504;28;20042;-81
2022/06/28 11:22:33;;;;;;;7.80;2.20;;;22.30;53.00;;;;;;4957113;28;20097;-82
2022/06/28 11:25:01;;;;;;;6.60;1.83;;;22.40;51.60;;;;;;4957135;28;20038;-81
2022/06/28 11:27:28;;;;;;;8.10;1.85;;;22.60;52.10;;;;;;4973366;28;20041;-80
2022/06/28 11:29:59;;;;;;;5.25;2.13;;;22.60;50.80;;;;;;4957310;28;20038;-80
2022/06/28 11:32:29;;;;;;;5.72;2.20;;;22.80;51.00;;;;;;4957227;28;20419;-82
2022/06/28 11:35:28;;;;;;;4.97;1.52;;;22.80;49.00;;;;;;4957152;28;20487;-82
2022/06/28 11:38:01;;;;;;;5.60;1.58;;;22.90;49.30;;;;;;4962562;28;20043;-81
2022/06/28 11:40:43;;;;;;;3.20;1.42;;;22.80;48.00;;;;;;4973410;28;20049;-82
2022/06/28 11:43:11;;;;;;;5.10;1.52;;;22.90;48.80;;;;;;4941247;28;20503;-80
2022/06/28 11:45:39;;;;;;;4.78;1.67;;;22.80;47.40;;;;;;4956994;28;20110;-82
2022/06/28 11:48:16;;;;;;;5.63;2.33;;;22.70;46.60;;;;;;4956857;28;20046;-82
2022/06/28 11:50:46;;;;;;;2.33;0.98;;;22.90;48.20;;;;;;4956921;28;20047;-83
2022/06/28 11:53:13;;;;;;;4.10;1.20;;;23.00;47.40;;;;;;4973206;28;20069;-81
2022/06/28 11:55:51;;;;;;;6.72;1.38;;;23.30;46.90;;;;;;4973226;28;20043;-82
2022/06/28 11:58:19;;;;;;;3.20;1.08;;;23.30;46.10;;;;;;4961153;28;20038;-81
2022/06/28 12:01:08;;;;;;;5.70;1.55;;;22.90;44.90;;;;;;4963632;28;20034;-81
2022/06/28 12:03:53;;;;;;;4.82;1.33;;;23.10;46.60;;;;;;4972980;28;20046;-82
2022/06/28 12:06:31;;;;;;;5.55;1.65;;;23.40;47.10;;;;;;4957009;28;20051;-81
2022/06/28 12:09:05;;;;;;;6.43;2.00;;;23.80;46.70;;;;;;4973595;28;20072;-80
2022/06/28 12:11:32;;;;;;;4.05;1.30;;;23.80;46.30;;;;;;4976489;28;20495;-82
2022/06/28 12:14:15;;;;;;;5.80;1.83;;;24.00;46.60;;;;;;4960431;28;20047;-81
2022/06/28 12:16:43;;;;;;;4.30;1.20;;;24.00;46.50;;;;;;4976796;28;20390;-81
2022/06/28 12:19:12;;;;;;;4.85;1.45;;;23.90;46.70;;;;;;4960490;28;20078;-81
2022/06/28 12:21:55;;;;;;;9.55;1.60;;;24.00;47.20;;;;;;4960612;28;20438;-81
2022/06/28 12:24:40;;;;;;;6.97;1.58;;;24.10;47.10;;;;;;4960785;28;20483;-81
2022/06/28 12:27:05;;;;;;;;;;;24.30;47.20;;;;;;4960818;28;20054;-80
2022/06/28 12:29:31;;;;;;;5.88;2.42;;;24.30;45.80;;;;;;4960327;28;19918;-83
2022/06/28 12:31:57;;;;;;;5.85;1.67;;;24.00;46.30;;;;;;4976280;28;20388;-82
2022/06/28 12:34:23;;;;;;;5.13;1.73;;;24.20;47.10;;;;;;4960092;28;20047;-81
2022/06/28 12:36:49;;;;;;;4.57;1.73;;;24.10;46.50;;;;;;4960137;28;20451;-84
2022/06/28 12:39:14;;;;;;;5.82;1.90;;;24.10;47.00;;;;;;4960906;28;20038;-82
2022/06/28 12:41:41;;;;;;;5.32;1.85;;;24.30;47.40;;;;;;4948944;29;20044;-79
2022/06/28 12:44:07;;;;;;;5.47;2.25;;;24.20;47.30;;;;;;4940658;29;20055;-79
2022/06/28 12:46:33;;;;;;;6.05;1.55;;;24.10;47.40;;;;;;4939019;29;20054;-80
2022/06/28 12:48:58;;;;;;;6.20;1.40;;;24.00;47.20;;;;;;4935463;29;20050;-78
2022/06/28 12:51:24;;;;;;;6.20;1.60;;;24.10;48.20;;;;;;4935431;29;20046;-76
2022/06/28 12:53:50;;;;;;;3.83;1.33;;;24.10;47.40;;;;;;4929406;29;20051;-77
2022/06/28 12:56:16;;;;;;;5.72;1.40;;;23.90;47.70;;;;;;4936274;29;20539;-77
2022/06/28 12:58:44;;;;;;;4.40;1.13;;;24.10;46.90;;;;;;4968930;28;20058;-80
2022/06/28 13:01:10;;;;;;;3.92;1.23;;;24.10;45.90;;;;;;4967371;28;20496;-80